createdAt,value
2022-10-06T00:00:23.266Z,61.59
2022-10-06T00:05:55.139Z,62.10
2022-10-06T00:11:27.099Z,62.06
2022-10-06T00:16:58.751Z,62.07
2022-10-06T00:22:30.501Z,62.99
2022-10-06T00:28:02.446Z,63.14
2022-10-06T00:33:33.989Z,62.85
2022-10-06T00:39:06.065Z,62.93
2022-10-06T00:44:37.629Z,63.02
2022-10-06T00:50:09.418Z,62.98
2022-10-06T00:55:41.174Z,63.01
2022-10-06T01:01:13.125Z,63.02
2022-10-06T01:06:44.844Z,63.04
2022-10-06T01:12:16.731Z,63.10
2022-10-06T01:17:48.476Z,63.08
2022-10-06T01:23:20.195Z,63.06
2022-10-06T01:28:52.055Z,63.18
2022-10-06T01:34:23.666Z,63.32
2022-10-06T01:39:55.697Z,63.48
2022-10-06T01:45:27.148Z,63.54
2022-10-06T01:50:59.038Z,63.55
2022-10-06T01:56:30.941Z,63.60
2022-10-06T02:02:02.766Z,63.61
2022-10-06T02:07:34.408Z,63.73
2022-10-06T02:13:06.186Z,63.73
2022-10-06T02:18:38.112Z,63.85
2022-10-06T02:24:09.667Z,63.84
2022-10-06T02:29:41.418Z,63.87
2022-10-06T02:35:13.256Z,63.91
2022-10-06T02:40:45.026Z,63.98
2022-10-06T02:46:16.814Z,63.95
2022-10-06T02:51:48.590Z,63.95
2022-10-06T02:57:20.125Z,63.96
2022-10-06T03:02:51.666Z,63.97
2022-10-06T03:10:45.250Z,64.07
2022-10-06T03:16:17.134Z,64.20
2022-10-06T03:21:48.852Z,64.24
2022-10-06T03:27:22.673Z,64.26
2022-10-06T03:32:54.369Z,64.25
2022-10-06T03:38:26.472Z,64.30
2022-10-06T03:43:58.035Z,64.38
2022-10-06T03:49:29.900Z,64.44
2022-10-06T03:55:01.466Z,64.52
2022-10-06T04:00:33.493Z,64.60
2022-10-06T04:06:05.132Z,64.65
2022-10-06T04:11:37.023Z,64.76
2022-10-06T04:17:08.577Z,64.96
2022-10-06T04:22:40.399Z,65.15
2022-10-06T04:28:12.252Z,65.28
2022-10-06T04:33:44.169Z,65.40
2022-10-06T04:39:15.788Z,65.45
2022-10-06T04:44:47.508Z,65.57
2022-10-06T04:50:19.482Z,65.65
2022-10-06T04:55:51.148Z,65.63
2022-10-06T05:01:23.184Z,65.91
2022-10-06T05:12:27.558Z,66.15
2022-10-06T05:17:59.058Z,66.27
2022-10-06T05:23:30.728Z,66.19
2022-10-06T05:29:02.376Z,66.26
2022-10-06T05:34:34.293Z,66.10
2022-10-06T05:40:05.766Z,66.07
2022-10-06T05:45:37.339Z,65.94
2022-10-06T05:51:09.128Z,66.05
2022-10-06T05:56:40.884Z,65.99
2022-10-06T06:02:12.812Z,66.01
2022-10-06T06:07:44.463Z,65.45
2022-10-06T06:13:16.248Z,64.97
2022-10-06T06:18:47.778Z,64.24
2022-10-06T06:24:19.319Z,62.66
2022-10-06T06:29:50.954Z,61.67
2022-10-06T06:35:22.287Z,60.03
2022-10-06T06:40:53.762Z,58.99
2022-10-06T06:46:25.610Z,56.84
2022-10-06T06:51:57.450Z,55.81
2022-10-06T06:57:29.133Z,53.44
2022-10-06T07:03:01.146Z,52.31
2022-10-06T07:08:32.974Z,50.69
2022-10-06T07:14:04.541Z,49.76
2022-10-06T07:21:49.161Z,47.61
2022-10-06T07:27:20.479Z,46.92
2022-10-06T07:32:51.910Z,45.44
2022-10-06T07:38:23.693Z,44.16
2022-10-06T07:46:08.544Z,0.00
2022-10-06T07:51:39.831Z,41.41
2022-10-06T07:57:11.135Z,41.01
2022-10-06T08:02:42.682Z,39.99
2022-10-06T08:08:14.061Z,39.87
2022-10-06T08:13:45.708Z,39.38
2022-10-06T08:19:17.243Z,39.49
2022-10-06T08:25:05.265Z,39.18
2022-10-06T08:30:20.266Z,39.22
2022-10-06T08:35:51.947Z,38.80
2022-10-06T08:46:55.009Z,39.57
2022-10-06T08:52:26.420Z,40.02
2022-10-06T08:57:57.881Z,41.58
2022-10-06T09:03:29.452Z,41.28
2022-10-06T09:09:01.234Z,43.08
2022-10-06T09:14:33.017Z,43.87
2022-10-06T09:20:04.690Z,45.04
2022-10-06T09:25:36.444Z,45.60
2022-10-06T09:31:07.969Z,46.47
2022-10-06T09:36:39.701Z,46.80
2022-10-06T09:42:11.491Z,47.94
2022-10-06T09:47:43.311Z,48.14
2022-10-06T09:53:15.061Z,48.25
2022-10-06T09:58:46.517Z,48.36
2022-10-06T10:04:21.039Z,48.57
2022-10-06T10:09:49.940Z,48.76
2022-10-06T10:15:21.343Z,48.67
2022-10-06T10:20:52.636Z,48.69
2022-10-06T10:26:24.169Z,48.51
2022-10-06T10:31:55.980Z,48.97
2022-10-06T10:37:27.891Z,49.25
2022-10-06T10:42:59.420Z,49.62
2022-10-06T10:48:31.337Z,50.37
2022-10-06T10:54:03.186Z,50.64
2022-10-06T10:59:34.894Z,50.17
2022-10-06T11:05:06.644Z,51.08
2022-10-06T11:10:38.494Z,51.22
2022-10-06T11:16:10.237Z,51.10
2022-10-06T11:21:41.945Z,51.04
2022-10-06T11:27:13.820Z,50.46
2022-10-06T11:32:45.577Z,50.14
2022-10-06T11:38:17.418Z,49.75
2022-10-06T11:43:49.317Z,49.43
2022-10-06T11:49:21.043Z,49.90
2022-10-06T11:54:52.784Z,49.99
2022-10-06T12:00:24.632Z,50.55
2022-10-06T12:05:57.268Z,50.60
2022-10-06T12:11:28.254Z,50.77
2022-10-06T12:17:19.296Z,50.67
2022-10-06T12:22:31.832Z,50.97
2022-10-06T12:33:35.430Z,51.07
2022-10-06T12:39:07.224Z,50.45
2022-10-06T12:44:38.894Z,50.71
2022-10-06T12:55:40.219Z,51.42
2022-10-06T13:01:12.130Z,51.71
2022-10-06T13:06:43.814Z,52.20
2022-10-06T13:12:15.659Z,52.33
2022-10-06T13:17:47.397Z,52.73
2022-10-06T13:23:19.257Z,53.23
2022-10-06T13:28:51.176Z,53.74
2022-10-06T13:34:22.668Z,53.81
2022-10-06T13:39:54.194Z,53.45
2022-10-06T13:45:26.013Z,53.45
2022-10-06T14:02:01.192Z,54.82
2022-10-06T14:07:32.680Z,54.96
2022-10-06T14:13:04.300Z,54.89
2022-10-06T14:18:35.664Z,54.68
2022-10-06T14:24:09.311Z,54.75
2022-10-06T14:29:39.240Z,54.73
2022-10-06T14:35:10.866Z,54.26
2022-10-06T14:40:42.536Z,54.19
2022-10-06T14:46:14.369Z,53.95
2022-10-06T14:51:48.816Z,54.07
2022-10-06T15:02:50.399Z,55.81
2022-10-06T15:08:22.227Z,56.01
2022-10-06T15:13:53.941Z,56.22
2022-10-06T15:19:25.851Z,56.49
2022-10-06T15:24:57.529Z,56.68
2022-10-06T15:35:58.906Z,57.50
2022-10-06T15:41:35.051Z,57.55
2022-10-06T15:47:08.279Z,57.52
2022-10-06T15:52:39.778Z,57.82
2022-10-06T15:58:11.413Z,58.12
2022-10-06T16:03:43.565Z,58.53
2022-10-06T16:09:15.124Z,58.52
2022-10-06T16:14:46.993Z,58.88
2022-10-06T16:20:18.726Z,59.17
2022-10-06T16:25:50.504Z,59.52
2022-10-06T16:31:22.430Z,59.83
2022-10-06T16:42:23.786Z,61.30
2022-10-06T16:47:55.629Z,61.72
2022-10-06T16:53:27.340Z,62.62
2022-10-06T16:58:59.158Z,63.05
2022-10-06T17:04:30.981Z,62.95
2022-10-06T17:10:19.525Z,64.41
2022-10-06T17:15:34.657Z,64.56
2022-10-06T17:21:20.392Z,65.26
2022-10-06T17:26:38.114Z,65.07
2022-10-06T17:32:09.919Z,65.61
2022-10-06T17:37:41.592Z,65.82
2022-10-06T17:43:13.269Z,66.70
2022-10-06T17:48:45.136Z,67.14
2022-10-06T17:54:16.869Z,67.11
2022-10-06T17:59:48.622Z,68.33
2022-10-06T18:05:20.545Z,69.05
2022-10-06T18:10:54.779Z,69.01
2022-10-06T18:16:24.210Z,69.33
2022-10-06T18:21:55.981Z,69.73
2022-10-06T18:27:27.615Z,70.00
2022-10-06T18:35:57.654Z,69.82
2022-10-06T18:38:31.401Z,70.14
2022-10-06T18:44:03.116Z,70.86
2022-10-06T18:49:34.625Z,70.84
2022-10-06T18:55:06.771Z,70.78
2022-10-06T19:00:38.342Z,70.83
2022-10-06T19:06:10.197Z,70.80
2022-10-06T19:11:41.992Z,70.71
2022-10-06T19:17:14.158Z,70.81
2022-10-06T19:22:45.847Z,71.14
2022-10-06T19:28:17.664Z,71.84
2022-10-06T19:39:21.168Z,71.71
2022-10-06T19:44:53.016Z,71.68
2022-10-06T19:56:01.070Z,72.79
2022-10-06T20:01:32.786Z,72.83
2022-10-06T20:07:04.577Z,72.47
2022-10-06T20:12:36.389Z,72.66
2022-10-06T20:18:08.296Z,72.58
2022-10-06T20:23:40.014Z,72.73
2022-10-06T20:29:12.014Z,72.69
2022-10-06T20:34:43.737Z,72.62
2022-10-06T20:40:15.495Z,72.65
2022-10-06T20:42:38.987Z,72.59
2022-10-06T20:48:12.581Z,72.53
2022-10-06T20:53:44.266Z,72.44
2022-10-06T20:59:15.991Z,72.34
2022-10-06T21:04:47.805Z,72.19
2022-10-06T21:10:19.624Z,72.19
2022-10-06T21:15:51.592Z,72.67
2022-10-06T21:21:23.217Z,73.47
2022-10-06T21:26:55.031Z,73.29
2022-10-06T21:32:28.407Z,73.33
2022-10-06T21:38:02.192Z,73.23
2022-10-06T21:43:33.909Z,73.61
2022-10-06T21:49:05.650Z,73.09
2022-10-06T21:54:37.585Z,73.16
2022-10-06T22:00:09.266Z,72.77
2022-10-06T22:05:40.969Z,73.03
2022-10-06T22:11:12.930Z,72.81
2022-10-06T22:16:44.631Z,73.19
2022-10-06T22:22:16.520Z,73.04
2022-10-06T22:27:48.191Z,72.99
2022-10-06T22:33:20.043Z,72.79
2022-10-06T22:38:51.382Z,73.04
2022-10-06T22:44:23.209Z,73.21
2022-10-06T22:49:54.813Z,73.28
2022-10-06T22:55:26.379Z,73.43
2022-10-06T23:00:58.199Z,73.28
2022-10-06T23:06:30.051Z,73.50
2022-10-06T23:12:01.795Z,73.38
2022-10-06T23:17:33.515Z,73.53
2022-10-06T23:23:05.294Z,73.60
2022-10-06T23:28:37.157Z,73.83
2022-10-06T23:34:08.763Z,73.73
2022-10-06T23:39:40.988Z,73.70
2022-10-06T23:45:12.473Z,73.46
2022-10-06T23:50:44.306Z,73.84
2022-10-06T23:56:16.079Z,73.48
